createdAt,value
2023-01-17T00:00:36.501Z,10.44
2023-01-17T00:01:39.509Z,10.08
2023-01-17T00:02:42.696Z,9.79
2023-01-17T00:04:04.219Z,9.75
2023-01-17T00:05:25.943Z,9.45
2023-01-17T00:06:47.272Z,10.59
2023-01-17T00:08:08.859Z,9.87
2023-01-17T00:09:31.400Z,10.54
2023-01-17T00:10:36.419Z,10.07
2023-01-17T00:11:39.661Z,10.93
2023-01-17T00:12:48.600Z,10.56
2023-01-17T00:13:51.799Z,10.47
2023-01-17T00:14:55.959Z,10.68
2023-01-17T00:15:59.156Z,11.09
2023-01-17T00:17:02.277Z,10.56
2023-01-17T00:18:05.428Z,10.88
2023-01-17T00:19:26.709Z,10.79
2023-01-17T00:20:49.895Z,10.61
2023-01-17T00:21:54.758Z,10.86
2023-01-17T00:23:16.216Z,10.46
2023-01-17T00:24:37.606Z,12.85
2023-01-17T00:25:59.146Z,11.80
2023-01-17T00:27:13.996Z,10.83
2023-01-17T00:28:17.250Z,11.96
2023-01-17T00:29:20.175Z,12.39
2023-01-17T00:30:23.214Z,12.69
2023-01-17T00:31:26.122Z,12.69
2023-01-17T00:32:29.002Z,12.17
2023-01-17T00:33:32.455Z,12.24
2023-01-17T00:34:35.363Z,11.90
2023-01-17T00:35:38.551Z,13.22
2023-01-17T00:36:41.569Z,12.23
2023-01-17T00:37:44.562Z,12.11
2023-01-17T00:38:47.484Z,11.96
2023-01-17T00:39:50.371Z,11.35
2023-01-17T00:40:53.380Z,11.71
2023-01-17T00:41:57.077Z,11.51
2023-01-17T00:43:18.765Z,11.26
2023-01-17T00:44:40.148Z,11.24
2023-01-17T00:46:02.424Z,11.54
2023-01-17T00:47:24.138Z,12.43
2023-01-17T00:48:45.488Z,12.21
2023-01-17T00:50:07.065Z,12.67
2023-01-17T00:51:28.736Z,12.86
2023-01-17T00:52:50.316Z,13.39
2023-01-17T00:54:11.958Z,13.22
2023-01-17T00:55:33.643Z,12.33
2023-01-17T00:56:55.476Z,15.09
2023-01-17T00:58:17.047Z,13.32
2023-01-17T00:59:38.716Z,12.15
2023-01-17T01:01:00.406Z,12.27
2023-01-17T01:02:21.822Z,12.59
2023-01-17T01:03:43.088Z,12.02
2023-01-17T01:05:04.710Z,11.09
2023-01-17T01:06:27.161Z,10.69
2023-01-17T01:07:48.694Z,11.33
2023-01-17T01:09:10.385Z,10.59
2023-01-17T01:10:31.965Z,10.75
2023-01-17T01:11:53.716Z,10.60
2023-01-17T01:13:15.382Z,10.01
2023-01-17T01:14:36.783Z,11.29
2023-01-17T01:15:58.081Z,9.98
2023-01-17T01:17:19.568Z,10.77
2023-01-17T01:18:41.119Z,9.80
2023-01-17T01:20:02.694Z,9.36
2023-01-17T01:21:24.201Z,8.61
2023-01-17T01:22:45.837Z,9.02
2023-01-17T01:24:07.482Z,8.66
2023-01-17T01:25:29.191Z,9.08
2023-01-17T01:26:50.558Z,8.62
2023-01-17T01:28:13.421Z,8.42
2023-01-17T01:29:35.079Z,9.05
2023-01-17T01:30:56.613Z,8.17
2023-01-17T01:32:17.865Z,8.80
2023-01-17T01:33:20.769Z,8.54
2023-01-17T01:34:23.966Z,7.90
2023-01-17T01:35:27.110Z,8.21
2023-01-17T01:36:30.372Z,8.15
2023-01-17T01:37:33.412Z,8.68
2023-01-17T01:38:36.781Z,8.45
2023-01-17T01:39:39.846Z,8.27
2023-01-17T01:40:46.085Z,8.74
2023-01-17T01:41:49.158Z,9.05
2023-01-17T01:42:55.086Z,9.02
2023-01-17T01:43:58.294Z,8.79
2023-01-17T01:45:03.059Z,9.33
2023-01-17T01:46:08.426Z,9.13
2023-01-17T01:47:17.310Z,8.86
2023-01-17T01:48:30.112Z,9.05
2023-01-17T01:49:33.207Z,8.36
2023-01-17T01:50:36.998Z,7.93
2023-01-17T01:51:43.310Z,9.16
2023-01-17T01:52:49.710Z,8.87
2023-01-17T01:53:55.889Z,9.44
2023-01-17T01:55:02.476Z,9.02
2023-01-17T01:56:09.335Z,8.62
2023-01-17T01:57:15.969Z,9.34
2023-01-17T01:58:25.398Z,8.72
2023-01-17T01:59:30.262Z,8.64
2023-01-17T02:00:36.013Z,8.57
2023-01-17T02:01:39.325Z,8.98
2023-01-17T02:02:43.970Z,8.02
2023-01-17T02:03:48.803Z,8.91
2023-01-17T02:04:52.164Z,8.95
2023-01-17T02:05:56.053Z,8.83
2023-01-17T02:07:07.620Z,9.01
2023-01-17T02:08:14.768Z,8.72
2023-01-17T02:09:19.745Z,8.81
2023-01-17T02:10:23.535Z,9.15
2023-01-17T02:11:27.197Z,9.11
2023-01-17T02:12:30.790Z,8.70
2023-01-17T02:13:33.847Z,9.14
2023-01-17T02:14:36.895Z,8.93
2023-01-17T02:16:04.872Z,8.34
2023-01-17T02:17:26.518Z,8.89
2023-01-17T02:18:53.101Z,9.13
2023-01-17T02:20:21.014Z,8.37
2023-01-17T02:21:36.564Z,8.66
2023-01-17T02:23:07.597Z,8.96
2023-01-17T02:25:43.621Z,8.48
2023-01-17T02:27:03.268Z,9.74
2023-01-17T02:28:29.866Z,9.07
2023-01-17T02:30:09.770Z,9.46
2023-01-17T02:31:19.169Z,9.33
2023-01-17T02:32:34.494Z,9.51
2023-01-17T02:33:46.857Z,10.12
2023-01-17T02:35:08.427Z,9.78
2023-01-17T02:36:24.243Z,9.60
2023-01-17T02:37:56.814Z,9.35
2023-01-17T02:39:03.559Z,8.98
2023-01-17T02:40:10.915Z,9.18
2023-01-17T02:41:17.541Z,9.97
2023-01-17T02:42:25.684Z,9.81
2023-01-17T02:43:29.085Z,10.08
2023-01-17T02:44:35.782Z,9.93
2023-01-17T02:45:38.860Z,9.51
2023-01-17T02:46:51.292Z,9.91
2023-01-17T02:47:54.451Z,9.92
2023-01-17T02:48:58.210Z,10.49
2023-01-17T02:50:10.857Z,10.23
2023-01-17T02:51:32.585Z,10.44
2023-01-17T02:52:57.432Z,10.58
2023-01-17T02:54:10.141Z,10.62
2023-01-17T02:55:19.516Z,10.82
2023-01-17T02:56:42.556Z,10.52
2023-01-17T02:58:06.786Z,11.81
2023-01-17T02:59:16.176Z,11.69
2023-01-17T03:00:34.953Z,11.73
2023-01-17T03:01:53.668Z,11.14
2023-01-17T03:03:09.484Z,11.10
2023-01-17T03:04:21.937Z,11.68
2023-01-17T03:05:55.731Z,10.94
2023-01-17T03:07:02.458Z,11.52
2023-01-17T03:08:07.067Z,11.21
2023-01-17T03:09:10.366Z,12.57
2023-01-17T03:10:17.419Z,11.98
2023-01-17T03:11:20.806Z,10.69
2023-01-17T03:12:29.485Z,11.49
2023-01-17T03:13:32.644Z,10.99
2023-01-17T03:14:35.703Z,12.23
2023-01-17T03:15:39.969Z,11.71
2023-01-17T03:16:43.951Z,12.60
2023-01-17T03:17:50.211Z,11.56
2023-01-17T03:18:56.435Z,11.71
2023-01-17T03:19:59.584Z,11.87
2023-01-17T03:21:02.860Z,11.49
2023-01-17T03:22:05.926Z,11.88
2023-01-17T03:23:09.181Z,11.88
2023-01-17T03:24:12.414Z,11.26
2023-01-17T03:25:16.812Z,10.69
2023-01-17T03:26:19.985Z,11.82
2023-01-17T03:27:23.056Z,11.69
2023-01-17T03:28:26.198Z,11.83
2023-01-17T03:29:29.276Z,12.66
2023-01-17T03:30:32.480Z,12.35
2023-01-17T03:31:35.513Z,10.59
2023-01-17T03:32:38.557Z,11.94
2023-01-17T03:33:41.799Z,12.38
2023-01-17T03:34:44.985Z,12.91
2023-01-17T03:35:48.059Z,14.15
2023-01-17T03:36:51.229Z,13.77
2023-01-17T03:37:54.385Z,15.16
2023-01-17T03:38:57.445Z,14.57
2023-01-17T03:40:00.520Z,13.53
2023-01-17T03:41:04.210Z,14.16
2023-01-17T03:42:07.379Z,14.75
2023-01-17T03:43:11.256Z,14.88
2023-01-17T03:44:14.428Z,15.82
2023-01-17T03:45:17.714Z,15.18
2023-01-17T03:46:23.395Z,15.29
2023-01-17T03:47:26.565Z,15.06
2023-01-17T03:48:29.806Z,15.44
2023-01-17T03:49:32.892Z,14.57
2023-01-17T03:50:36.323Z,14.91
2023-01-17T03:51:39.496Z,12.43
2023-01-17T03:52:42.636Z,13.01
2023-01-17T03:53:49.389Z,12.44
2023-01-17T03:54:52.645Z,12.21
2023-01-17T03:55:55.718Z,10.93
2023-01-17T03:56:58.807Z,11.55
2023-01-17T03:58:01.872Z,11.74
2023-01-17T03:59:04.997Z,11.60
2023-01-17T04:00:09.294Z,12.40
2023-01-17T04:01:12.541Z,12.16
2023-01-17T04:02:15.715Z,12.77
2023-01-17T04:03:19.053Z,12.98
2023-01-17T04:04:22.567Z,12.49
2023-01-17T04:05:25.765Z,13.61
2023-01-17T04:06:29.053Z,12.06
2023-01-17T04:07:32.147Z,13.32
2023-01-17T04:08:35.309Z,12.63
2023-01-17T04:09:38.458Z,12.94
2023-01-17T04:10:41.597Z,13.41
2023-01-17T04:11:44.632Z,12.94
2023-01-17T04:12:47.971Z,13.31
2023-01-17T04:13:51.117Z,13.53
2023-01-17T04:14:54.058Z,12.92
2023-01-17T04:15:57.193Z,13.76
2023-01-17T04:17:00.840Z,13.31
2023-01-17T04:18:04.893Z,13.91
2023-01-17T04:19:11.542Z,14.02
2023-01-17T04:20:20.960Z,13.17
2023-01-17T04:21:24.240Z,12.98
2023-01-17T04:22:27.382Z,14.56
2023-01-17T04:23:30.575Z,14.72
2023-01-17T04:24:33.532Z,14.12
2023-01-17T04:25:36.784Z,13.91
2023-01-17T04:26:39.854Z,14.65
2023-01-17T04:27:42.990Z,13.44
2023-01-17T04:28:46.184Z,14.65
2023-01-17T04:29:49.322Z,14.87
2023-01-17T04:30:52.335Z,14.13
2023-01-17T04:31:55.491Z,14.11
2023-01-17T04:32:58.518Z,14.62
2023-01-17T04:34:01.588Z,14.97
2023-01-17T04:35:06.576Z,14.65
2023-01-17T04:36:10.900Z,14.89
2023-01-17T04:37:14.057Z,14.34
2023-01-17T04:38:17.215Z,16.25
2023-01-17T04:39:20.322Z,15.00
2023-01-17T04:40:23.522Z,16.15
2023-01-17T04:41:26.765Z,15.46
2023-01-17T04:42:30.065Z,15.84
2023-01-17T04:43:33.222Z,16.37
2023-01-17T04:44:36.391Z,17.01
2023-01-17T04:45:39.749Z,16.07
2023-01-17T04:46:43.129Z,16.65
2023-01-17T04:47:46.271Z,16.31
2023-01-17T04:48:49.431Z,16.26
2023-01-17T04:49:53.188Z,16.68
2023-01-17T04:51:00.640Z,17.43
2023-01-17T04:52:03.914Z,18.46
2023-01-17T04:53:07.415Z,17.89
2023-01-17T04:54:10.766Z,18.60
2023-01-17T04:55:15.174Z,19.39
2023-01-17T04:56:19.351Z,19.72
2023-01-17T04:57:22.692Z,19.06
2023-01-17T04:58:26.184Z,19.76
2023-01-17T04:59:29.650Z,20.14
2023-01-17T05:00:33.326Z,19.58
2023-01-17T05:01:36.651Z,20.71
2023-01-17T05:02:39.984Z,20.93
2023-01-17T05:03:43.073Z,20.41
2023-01-17T05:04:46.248Z,20.55
2023-01-17T05:05:49.410Z,20.56
2023-01-17T05:06:52.786Z,22.40
2023-01-17T05:07:57.010Z,21.93
2023-01-17T05:09:02.016Z,21.03
2023-01-17T05:10:06.141Z,21.67
2023-01-17T05:11:09.336Z,22.02
2023-01-17T05:12:12.557Z,20.64
2023-01-17T05:13:15.876Z,19.98
2023-01-17T05:14:19.062Z,21.93
2023-01-17T05:15:22.765Z,23.44
2023-01-17T05:16:26.316Z,22.22
2023-01-17T05:17:29.468Z,22.22
2023-01-17T05:18:32.662Z,21.86
2023-01-17T05:19:35.837Z,22.22
2023-01-17T05:20:39.006Z,22.16
2023-01-17T05:21:42.060Z,22.69
2023-01-17T05:22:46.787Z,23.12
2023-01-17T05:23:50.265Z,22.31
2023-01-17T05:24:53.433Z,21.19
2023-01-17T05:25:56.575Z,21.02
2023-01-17T05:27:01.639Z,20.81
2023-01-17T05:28:05.149Z,21.17
2023-01-17T05:29:08.760Z,22.34
2023-01-17T05:30:13.461Z,22.88
2023-01-17T05:31:16.660Z,21.96
2023-01-17T05:32:19.689Z,21.09
2023-01-17T05:33:22.751Z,22.41
2023-01-17T05:34:25.949Z,21.01
2023-01-17T05:35:32.093Z,21.14
2023-01-17T05:36:35.061Z,21.86
2023-01-17T05:37:38.104Z,20.18
2023-01-17T05:38:41.171Z,22.13
2023-01-17T05:39:44.371Z,21.53
2023-01-17T05:40:47.414Z,22.32
2023-01-17T05:41:50.472Z,21.44
2023-01-17T05:42:56.060Z,21.48
2023-01-17T05:43:59.252Z,21.71
2023-01-17T05:45:02.434Z,21.86
2023-01-17T05:46:05.679Z,21.13
2023-01-17T05:47:08.782Z,20.20
2023-01-17T05:48:11.847Z,20.39
2023-01-17T05:49:15.027Z,21.14
2023-01-17T05:50:23.434Z,19.92
2023-01-17T05:51:26.423Z,20.93
2023-01-17T05:52:29.567Z,20.22
2023-01-17T05:53:32.685Z,20.92
2023-01-17T05:54:35.801Z,20.93
2023-01-17T05:55:40.068Z,20.94
2023-01-17T05:56:43.348Z,19.22
2023-01-17T05:57:46.600Z,21.41
2023-01-17T05:58:49.652Z,20.09
2023-01-17T05:59:52.722Z,19.99
2023-01-17T06:00:56.153Z,19.72
2023-01-17T06:01:59.181Z,19.94
2023-01-17T06:03:02.239Z,17.81
2023-01-17T06:04:05.428Z,19.67
2023-01-17T06:05:09.145Z,18.58
2023-01-17T06:06:13.587Z,18.12
2023-01-17T06:07:17.029Z,18.06
2023-01-17T06:08:20.122Z,19.25
2023-01-17T06:09:23.546Z,18.73
2023-01-17T06:10:27.951Z,18.54
2023-01-17T06:11:31.327Z,18.78
2023-01-17T06:12:34.659Z,18.48
2023-01-17T06:13:37.993Z,20.25
2023-01-17T06:14:41.392Z,21.68
2023-01-17T06:15:44.861Z,21.43
2023-01-17T06:16:48.081Z,21.11
2023-01-17T06:17:51.162Z,20.10
2023-01-17T06:18:54.319Z,21.11
2023-01-17T06:19:57.539Z,20.69
2023-01-17T06:21:00.598Z,21.69
2023-01-17T06:22:04.728Z,21.37
2023-01-17T06:23:11.031Z,19.38
2023-01-17T06:24:14.656Z,19.89
2023-01-17T06:25:17.826Z,18.57
2023-01-17T06:26:20.986Z,18.37
2023-01-17T06:27:24.046Z,17.91
2023-01-17T06:28:27.253Z,18.11
2023-01-17T06:29:30.439Z,17.76
2023-01-17T06:30:34.355Z,17.69
2023-01-17T06:31:37.567Z,17.30
2023-01-17T06:32:40.602Z,17.64
2023-01-17T06:33:43.768Z,17.96
2023-01-17T06:34:46.898Z,18.32
2023-01-17T06:35:51.486Z,17.21
2023-01-17T06:36:54.663Z,17.54
2023-01-17T06:37:59.755Z,18.97
2023-01-17T06:39:03.006Z,17.79
2023-01-17T06:40:07.258Z,18.23
2023-01-17T06:41:10.336Z,16.91
2023-01-17T06:42:13.610Z,15.11
2023-01-17T06:43:16.811Z,15.65
2023-01-17T06:44:19.990Z,15.31
2023-01-17T06:45:23.161Z,15.48
2023-01-17T06:46:26.350Z,15.02
2023-01-17T06:47:29.479Z,14.24
2023-01-17T06:48:32.739Z,13.20
2023-01-17T06:49:35.806Z,12.78
2023-01-17T06:50:38.934Z,13.27
2023-01-17T06:51:43.631Z,12.64
2023-01-17T06:52:56.435Z,13.21
2023-01-17T06:53:59.537Z,12.42
2023-01-17T06:55:02.627Z,12.37
2023-01-17T06:56:06.361Z,12.41
2023-01-17T06:57:09.523Z,12.76
2023-01-17T06:58:12.564Z,13.64
2023-01-17T06:59:15.776Z,12.01
2023-01-17T07:00:19.209Z,12.51
2023-01-17T07:01:22.525Z,11.12
2023-01-17T07:02:25.795Z,12.67
2023-01-17T07:03:29.122Z,11.26
2023-01-17T07:04:34.126Z,12.41
2023-01-17T07:05:37.340Z,12.11
2023-01-17T07:06:40.642Z,12.71
2023-01-17T07:07:45.031Z,13.22
2023-01-17T07:08:48.411Z,13.47
2023-01-17T07:09:51.497Z,15.22
2023-01-17T07:10:58.358Z,12.77
2023-01-17T07:12:01.978Z,12.76
2023-01-17T07:13:05.136Z,12.37
2023-01-17T07:14:11.759Z,13.19
2023-01-17T07:15:15.001Z,11.92
2023-01-17T07:16:18.056Z,12.19
2023-01-17T07:17:21.199Z,11.73
2023-01-17T07:18:24.376Z,12.32
2023-01-17T07:19:27.529Z,12.69
2023-01-17T07:20:30.810Z,12.29
2023-01-17T07:21:33.860Z,11.92
2023-01-17T07:22:37.101Z,11.94
2023-01-17T07:23:40.256Z,11.49
2023-01-17T07:24:43.415Z,11.91
2023-01-17T07:25:54.740Z,12.73
2023-01-17T07:26:58.005Z,12.02
2023-01-17T07:28:01.190Z,12.50
2023-01-17T07:29:04.770Z,12.43
2023-01-17T07:30:09.238Z,11.81
2023-01-17T07:31:12.409Z,12.58
2023-01-17T07:32:15.527Z,11.15
2023-01-17T07:33:18.803Z,12.10
2023-01-17T07:34:22.094Z,12.56
2023-01-17T07:35:28.141Z,12.94
2023-01-17T07:36:31.424Z,12.67
2023-01-17T07:37:34.608Z,12.93
2023-01-17T07:38:37.829Z,13.26
2023-01-17T07:39:40.995Z,12.71
2023-01-17T07:40:44.878Z,13.77
2023-01-17T07:41:48.046Z,12.41
2023-01-17T07:42:51.128Z,12.79
2023-01-17T07:43:56.320Z,12.54
2023-01-17T07:45:00.113Z,14.04
2023-01-17T07:46:06.464Z,13.69
2023-01-17T07:47:09.890Z,13.47
2023-01-17T07:48:13.169Z,14.23
2023-01-17T07:49:16.251Z,14.18
2023-01-17T07:50:19.448Z,14.87
2023-01-17T07:51:22.636Z,14.44
2023-01-17T07:52:25.832Z,15.46
2023-01-17T07:53:30.998Z,14.48
2023-01-17T07:54:34.220Z,14.27
2023-01-17T07:55:37.391Z,15.69
2023-01-17T07:56:42.577Z,14.44
2023-01-17T07:57:50.497Z,14.31
2023-01-17T07:58:53.699Z,14.98
2023-01-17T07:59:57.050Z,14.94
2023-01-17T08:01:08.749Z,14.87
2023-01-17T08:02:21.120Z,14.25
2023-01-17T08:03:24.363Z,14.94
2023-01-17T08:04:28.241Z,15.13
2023-01-17T08:05:31.458Z,15.60
2023-01-17T08:06:34.670Z,15.33
2023-01-17T08:07:38.074Z,14.95
2023-01-17T08:08:41.202Z,14.07
2023-01-17T08:09:46.349Z,15.00
2023-01-17T08:10:51.018Z,14.68
2023-01-17T08:11:54.289Z,14.78
2023-01-17T08:12:57.588Z,15.34
2023-01-17T08:14:00.759Z,14.78
2023-01-17T08:15:04.895Z,13.95
2023-01-17T08:16:10.610Z,14.91
2023-01-17T08:17:15.778Z,12.79
2023-01-17T08:18:18.995Z,13.34
2023-01-17T08:19:22.232Z,13.79
2023-01-17T08:20:27.978Z,14.68
2023-01-17T08:21:31.206Z,14.14
2023-01-17T08:22:34.385Z,14.71
2023-01-17T08:23:37.400Z,14.07
2023-01-17T08:24:41.437Z,13.69
2023-01-17T08:25:44.623Z,13.95
2023-01-17T08:26:47.720Z,13.96
2023-01-17T08:27:51.758Z,13.26
2023-01-17T08:28:56.331Z,14.36
2023-01-17T08:29:59.552Z,14.51
2023-01-17T08:31:09.153Z,13.19
2023-01-17T08:32:13.389Z,13.57
2023-01-17T08:33:16.594Z,14.05
2023-01-17T08:34:19.710Z,13.62
2023-01-17T08:35:22.918Z,13.83
2023-01-17T08:36:28.040Z,13.14
2023-01-17T08:37:31.065Z,13.55
2023-01-17T08:38:34.343Z,14.36
2023-01-17T08:39:37.583Z,13.00
2023-01-17T08:40:40.606Z,13.28
2023-01-17T08:41:43.805Z,13.32
2023-01-17T08:42:57.853Z,13.89
2023-01-17T08:44:01.475Z,14.07
2023-01-17T08:45:07.902Z,13.53
2023-01-17T08:46:11.551Z,13.43
2023-01-17T08:47:14.836Z,15.21
2023-01-17T08:48:18.034Z,13.02
2023-01-17T08:49:21.189Z,12.31
2023-01-17T08:50:25.512Z,13.04
2023-01-17T08:51:29.475Z,12.65
2023-01-17T08:52:32.848Z,12.60
2023-01-17T08:53:36.048Z,13.29
2023-01-17T08:54:39.231Z,11.89
2023-01-17T08:55:42.471Z,14.61
2023-01-17T08:56:47.438Z,13.35
2023-01-17T08:57:51.183Z,13.12
2023-01-17T08:58:54.369Z,12.61
2023-01-17T08:59:58.509Z,13.04
2023-01-17T09:01:02.913Z,13.29
2023-01-17T09:02:11.481Z,13.26
2023-01-17T09:03:14.720Z,13.52
2023-01-17T09:04:18.040Z,13.04
2023-01-17T09:05:21.066Z,12.86
2023-01-17T09:06:24.345Z,12.88
2023-01-17T09:07:27.911Z,13.03
2023-01-17T09:08:31.279Z,13.83
2023-01-17T09:09:34.393Z,14.18
2023-01-17T09:10:37.547Z,13.93
2023-01-17T09:11:40.751Z,14.61
2023-01-17T09:12:43.944Z,13.70
2023-01-17T09:13:47.129Z,13.18
2023-01-17T09:14:50.306Z,13.04
2023-01-17T09:15:58.848Z,13.86
2023-01-17T09:17:02.065Z,14.66
2023-01-17T09:18:05.255Z,14.10
2023-01-17T09:19:09.738Z,13.72
2023-01-17T09:20:13.215Z,12.99
2023-01-17T09:21:17.445Z,13.58
2023-01-17T09:22:20.589Z,12.25
2023-01-17T09:23:24.587Z,13.51
2023-01-17T09:24:27.674Z,13.02
2023-01-17T09:25:30.853Z,13.80
2023-01-17T09:26:35.076Z,14.41
2023-01-17T09:27:38.259Z,14.28
2023-01-17T09:28:42.147Z,13.99
2023-01-17T09:29:45.347Z,13.31
2023-01-17T09:30:48.705Z,13.61
2023-01-17T09:31:51.750Z,14.73
2023-01-17T09:32:55.157Z,13.88
2023-01-17T09:33:58.346Z,13.81
2023-01-17T09:35:02.650Z,14.06
2023-01-17T09:36:06.583Z,13.94
2023-01-17T09:37:09.687Z,13.59
2023-01-17T09:38:13.936Z,13.58
2023-01-17T09:39:17.156Z,13.91
2023-01-17T09:40:23.887Z,14.29
2023-01-17T09:41:36.705Z,15.08
2023-01-17T09:42:40.681Z,13.36
2023-01-17T09:44:03.913Z,13.19
2023-01-17T09:45:13.484Z,13.61
2023-01-17T09:46:23.760Z,13.23
2023-01-17T09:47:36.618Z,13.77
2023-01-17T09:48:40.361Z,13.48
2023-01-17T09:49:45.779Z,12.66
2023-01-17T09:51:01.426Z,13.61
2023-01-17T09:52:06.606Z,13.84
2023-01-17T09:53:16.317Z,13.48
2023-01-17T09:54:24.811Z,13.47
2023-01-17T09:55:36.845Z,12.96
2023-01-17T09:56:46.593Z,13.06
2023-01-17T09:58:02.302Z,13.20
2023-01-17T09:59:33.166Z,13.48
2023-01-17T10:00:36.617Z,12.53
2023-01-17T10:02:01.301Z,13.28
2023-01-17T10:03:32.262Z,13.57
2023-01-17T10:04:39.066Z,13.21
2023-01-17T10:06:20.520Z,12.56
2023-01-17T10:07:46.700Z,13.12
2023-01-17T10:10:21.022Z,13.84
2023-01-17T10:11:39.635Z,12.86
2023-01-17T10:12:51.988Z,12.77
2023-01-17T10:14:10.494Z,13.24
2023-01-17T10:15:35.484Z,13.89
2023-01-17T10:18:33.978Z,13.67
2023-01-17T10:21:14.191Z,13.96
2023-01-17T10:22:37.193Z,13.23
2023-01-17T10:24:03.158Z,13.28
2023-01-17T10:25:15.898Z,13.58
2023-01-17T10:26:24.972Z,14.34
2023-01-17T10:27:40.733Z,13.81
2023-01-17T10:28:50.581Z,13.52
2023-01-17T10:29:53.649Z,13.67
2023-01-17T10:31:03.449Z,14.01
2023-01-17T10:32:10.253Z,13.72
2023-01-17T10:33:19.684Z,14.08
2023-01-17T10:34:38.464Z,13.91
2023-01-17T10:35:45.106Z,14.27
2023-01-17T10:36:59.665Z,13.52
2023-01-17T10:38:06.372Z,14.42
2023-01-17T10:39:21.916Z,13.37
2023-01-17T13:56:32.685Z,17.55
2023-01-17T13:57:43.126Z,16.82
2023-01-17T13:58:51.030Z,15.39
2023-01-17T13:59:56.039Z,16.47
2023-01-17T14:00:59.559Z,17.42
2023-01-17T14:02:02.850Z,16.40
2023-01-17T14:03:09.637Z,16.14
2023-01-17T14:04:13.088Z,16.88
2023-01-17T14:05:22.315Z,15.93
2023-01-17T14:06:31.146Z,15.38
2023-01-17T14:07:37.418Z,16.05
2023-01-17T14:08:44.127Z,15.24
2023-01-17T14:09:49.860Z,15.47
2023-01-17T14:10:56.115Z,15.89
2023-01-17T14:12:14.656Z,16.63
2023-01-17T14:13:35.954Z,16.21
2023-01-17T14:15:55.959Z,16.61
2023-01-17T14:17:17.371Z,16.81
2023-01-17T14:18:38.720Z,15.98
2023-01-17T14:19:50.133Z,17.05
2023-01-17T14:20:56.894Z,17.43
2023-01-17T14:22:21.900Z,17.79
2023-01-17T14:23:28.659Z,16.99
2023-01-17T14:24:32.150Z,17.33
2023-01-17T14:25:40.369Z,18.19
2023-01-17T14:26:56.045Z,17.22
2023-01-17T14:28:02.746Z,17.12
2023-01-17T14:29:38.343Z,17.95
2023-01-17T14:30:42.022Z,17.07
2023-01-17T14:31:46.058Z,16.83
2023-01-17T14:33:02.429Z,17.10
2023-01-17T14:34:13.168Z,17.08
2023-01-17T14:36:32.446Z,17.22
2023-01-17T14:39:50.746Z,16.37
2023-01-17T14:41:04.167Z,17.57
2023-01-17T14:42:10.901Z,18.25
2023-01-17T14:43:17.284Z,18.98
2023-01-17T14:44:21.300Z,19.03
2023-01-17T14:45:28.235Z,17.81
2023-01-17T14:46:32.104Z,18.43
2023-01-17T14:47:40.680Z,19.37
2023-01-17T14:48:43.869Z,18.93
2023-01-17T14:49:46.948Z,18.41
2023-01-17T14:51:01.182Z,17.75
2023-01-17T14:52:05.770Z,20.27
2023-01-17T14:53:15.672Z,21.60
2023-01-17T14:54:21.493Z,21.58
2023-01-17T14:55:26.533Z,21.01
2023-01-17T14:56:30.844Z,19.80
2023-01-17T14:57:34.031Z,20.95
2023-01-17T14:58:38.698Z,20.52
2023-01-17T14:59:41.896Z,21.28
2023-01-17T15:00:45.333Z,19.85
2023-01-17T15:02:07.221Z,20.12
2023-01-17T15:03:03.737Z,21.07
2023-01-17T15:04:06.937Z,22.35
2023-01-17T15:05:15.245Z,21.12
2023-01-17T15:06:24.472Z,20.57
2023-01-17T15:07:28.257Z,21.05
2023-01-17T15:08:34.827Z,21.86
2023-01-17T15:09:38.317Z,20.73
2023-01-17T15:10:48.058Z,19.73
2023-01-17T15:11:52.798Z,20.11
2023-01-17T15:12:59.502Z,20.55
2023-01-17T15:14:05.405Z,18.73
2023-01-17T15:15:29.728Z,20.81
2023-01-17T15:16:35.932Z,20.16
2023-01-17T15:17:39.130Z,18.67
2023-01-17T15:18:42.819Z,19.52
2023-01-17T15:19:49.171Z,19.17
2023-01-17T15:21:03.325Z,19.27
2023-01-17T15:22:06.705Z,18.88
2023-01-17T15:23:13.315Z,19.32
2023-01-17T15:24:22.660Z,19.00
2023-01-17T15:25:26.639Z,18.70
2023-01-17T15:26:33.636Z,20.19
2023-01-17T15:27:37.746Z,19.91
2023-01-17T15:28:41.843Z,19.56
2023-01-17T15:29:46.197Z,20.42
2023-01-17T15:31:01.897Z,19.88
2023-01-17T15:32:06.773Z,20.09
2023-01-17T15:33:13.487Z,20.86
2023-01-17T15:34:38.078Z,20.13
2023-01-17T15:35:41.164Z,20.09
2023-01-17T15:36:47.772Z,19.93
2023-01-17T15:37:55.382Z,19.27
2023-01-17T15:39:01.667Z,19.16
2023-01-17T15:40:17.397Z,19.32
2023-01-17T15:41:22.487Z,18.97
2023-01-17T15:42:30.715Z,18.67
2023-01-17T15:43:35.300Z,19.49
2023-01-17T15:44:49.546Z,18.66
2023-01-17T15:45:58.072Z,19.10
2023-01-17T15:47:01.288Z,18.51
2023-01-17T15:48:33.753Z,17.95
2023-01-17T15:49:36.741Z,18.05
2023-01-17T15:50:42.650Z,20.27
2023-01-17T15:51:54.887Z,18.67
2023-01-17T15:53:01.358Z,19.94
2023-01-17T15:54:24.773Z,19.98
2023-01-17T15:55:33.802Z,20.22
2023-01-17T15:56:37.338Z,20.04
2023-01-17T15:57:43.475Z,20.02
2023-01-17T15:58:48.500Z,19.67
2023-01-17T16:00:17.775Z,19.72
2023-01-17T16:01:26.932Z,19.49
2023-01-17T16:02:44.672Z,19.50
2023-01-17T16:03:54.576Z,20.23
2023-01-17T16:04:59.186Z,21.19
2023-01-17T16:06:03.900Z,20.56
2023-01-17T16:07:13.025Z,20.17
2023-01-17T16:08:28.802Z,20.02
2023-01-17T16:09:38.191Z,19.51
2023-01-17T16:10:42.589Z,19.58
2023-01-17T16:11:45.785Z,19.15
2023-01-17T16:12:51.987Z,18.81
2023-01-17T16:13:55.412Z,18.77
2023-01-17T16:15:11.687Z,18.48
2023-01-17T16:16:15.091Z,19.48
2023-01-17T16:17:18.312Z,18.57
2023-01-17T16:18:23.832Z,19.17
2023-01-17T16:19:27.156Z,18.96
2023-01-17T16:20:48.589Z,19.00
2023-01-17T16:21:51.782Z,17.64
2023-01-17T16:22:54.972Z,18.04
2023-01-17T16:23:59.256Z,19.02
2023-01-17T16:25:02.504Z,16.44
2023-01-17T16:26:05.925Z,17.61
2023-01-17T16:27:09.113Z,17.29
2023-01-17T16:28:12.335Z,17.33
2023-01-17T16:29:15.523Z,16.33
2023-01-17T16:30:22.357Z,14.98
2023-01-17T16:31:25.630Z,15.74
2023-01-17T16:32:28.753Z,16.25
2023-01-17T16:33:31.948Z,16.44
2023-01-17T16:34:35.468Z,15.91
2023-01-17T16:35:39.743Z,14.88
2023-01-17T16:36:42.943Z,15.87
2023-01-17T16:37:52.165Z,14.69
2023-01-17T16:38:55.548Z,15.42
2023-01-17T16:39:58.714Z,15.29
2023-01-17T16:41:03.985Z,16.51
2023-01-17T16:42:08.855Z,14.65
2023-01-17T16:43:13.635Z,15.35
2023-01-17T16:44:16.815Z,16.27
2023-01-17T16:45:20.058Z,14.54
2023-01-17T16:46:23.161Z,15.21
2023-01-17T16:47:26.188Z,14.58
2023-01-17T16:48:29.155Z,15.20
2023-01-17T16:49:32.432Z,15.75
2023-01-17T16:50:38.563Z,15.68
2023-01-17T16:51:43.330Z,14.99
2023-01-17T16:52:46.423Z,15.13
2023-01-17T16:53:49.382Z,16.39
2023-01-17T16:54:52.322Z,15.60
2023-01-17T16:55:57.897Z,16.73
2023-01-17T16:57:01.077Z,16.50
2023-01-17T16:58:04.245Z,16.73
2023-01-17T16:59:07.491Z,16.36
2023-01-17T17:00:11.852Z,15.58
2023-01-17T17:01:17.301Z,15.91
2023-01-17T17:02:20.582Z,15.94
2023-01-17T17:03:23.815Z,16.04
2023-01-17T17:04:26.764Z,16.51
2023-01-17T17:05:31.699Z,16.21
2023-01-17T17:06:35.237Z,15.83
2023-01-17T17:07:45.617Z,16.28
2023-01-17T17:08:48.631Z,17.58
2023-01-17T17:09:51.741Z,18.09
2023-01-17T17:10:55.405Z,18.05
2023-01-17T17:11:58.527Z,16.32
2023-01-17T17:13:02.924Z,15.03
2023-01-17T17:14:06.085Z,14.88
2023-01-17T17:15:10.185Z,15.99
2023-01-17T17:16:17.166Z,15.38
2023-01-17T17:17:20.274Z,13.66
2023-01-17T17:18:23.334Z,13.56
2023-01-17T17:19:27.635Z,13.66
2023-01-17T17:20:31.619Z,12.42
2023-01-17T17:21:36.882Z,13.89
2023-01-17T17:22:43.368Z,14.29
2023-01-17T17:23:48.341Z,14.87
2023-01-17T17:24:51.454Z,13.97
2023-01-17T17:25:57.554Z,13.76
2023-01-17T17:27:00.735Z,13.18
2023-01-17T17:28:04.954Z,13.92
2023-01-17T17:29:10.414Z,13.48
2023-01-17T17:30:14.024Z,12.98
2023-01-17T17:31:17.316Z,13.84
2023-01-17T17:32:20.596Z,13.46
2023-01-17T17:33:23.757Z,13.43
2023-01-17T17:34:27.634Z,15.27
2023-01-17T17:35:35.446Z,13.39
2023-01-17T17:36:39.079Z,13.34
2023-01-17T17:37:42.248Z,13.96
2023-01-17T17:38:51.363Z,14.19
2023-01-17T17:39:57.758Z,14.55
2023-01-17T17:41:05.764Z,13.99
2023-01-17T17:42:08.869Z,13.35
2023-01-17T17:43:12.255Z,13.78
2023-01-17T17:44:15.860Z,13.84
2023-01-17T17:45:19.066Z,13.79
2023-01-17T17:46:24.931Z,15.39
2023-01-17T17:47:29.938Z,13.00
2023-01-17T17:48:33.032Z,14.27
2023-01-17T17:49:36.150Z,14.98
2023-01-17T17:50:39.204Z,13.69
2023-01-17T17:51:44.190Z,13.53
2023-01-17T17:52:47.916Z,13.98